Time;durP1;ratioP1;P1;durP2;ratioP2;P2;SDS_P1;SDS_P2;PMS_P1;PMS_P2;Temp;Humidity;BMP_temperature;BMP_pressure;BME280_temperature;BME280_humidity;BME280_pressure;Samples;Min_cycle;Max_cycle;Signal;HPM_P1;HPM_P2
2024/01/13 00:00:19;;;;;;;16.95;16.05;;;2.10;99.90;;;;;;5008936;28;20448;-78
2024/01/13 00:02:45;;;;;;;17.10;16.02;;;2.10;99.90;;;;;;5009686;28;20065;-78
2024/01/13 00:05:11;;;;;;;16.98;16.27;;;2.10;99.90;;;;;;5025062;28;20045;-78
2024/01/13 00:07:36;;;;;;;17.33;16.55;;;2.20;99.90;;;;;;5009628;28;20092;-77
2024/01/13 00:10:02;;;;;;;18.17;17.00;;;2.10;99.90;;;;;;5010949;28;20060;-78
2024/01/13 00:12:28;;;;;;;17.15;16.23;;;2.20;99.90;;;;;;5027395;28;20037;-78
2024/01/13 00:14:54;;;;;;;17.00;16.20;;;2.10;99.90;;;;;;5010315;28;20045;-77
2024/01/13 00:17:20;;;;;;;17.20;16.45;;;2.90;99.90;;;;;;5012685;28;20098;-78
2024/01/13 00:19:45;;;;;;;17.85;16.95;;;2.10;99.90;;;;;;5012493;28;20052;-78
2024/01/13 00:22:11;;;;;;;17.98;16.98;;;2.30;99.90;;;;;;5028123;28;20083;-78
2024/01/13 00:24:37;;;;;;;17.02;16.33;;;2.10;99.90;;;;;;5012538;28;20034;-78
2024/01/13 00:27:03;;;;;;;17.63;16.73;;;2.10;99.90;;;;;;5011201;28;20593;-78
2024/01/13 00:29:28;;;;;;;18.48;17.40;;;2.10;99.90;;;;;;5045233;28;20048;-79
2024/01/13 00:31:54;;;;;;;17.90;17.00;;;2.30;99.90;;;;;;5043702;28;20041;-78
2024/01/13 00:34:20;;;;;;;18.60;17.67;;;2.10;99.90;;;;;;5012188;28;20048;-78
2024/01/13 00:36:46;;;;;;;18.15;17.10;;;2.20;99.90;;;;;;5011964;28;20044;-78
2024/01/13 00:39:11;;;;;;;18.20;17.25;;;2.20;99.90;;;;;;5027222;28;20032;-78
2024/01/13 00:41:37;;;;;;;17.67;16.85;;;2.30;99.90;;;;;;5028976;28;20080;-77
2024/01/13 00:44:03;;;;;;;17.70;16.90;;;2.10;99.90;;;;;;5026857;28;20047;-78
2024/01/13 00:46:29;;;;;;;18.38;17.60;;;2.10;99.90;;;;;;5028741;28;20060;-79
2024/01/13 00:48:54;;;;;;;18.33;17.48;;;2.10;99.90;;;;;;5011014;28;20053;-78
2024/01/13 00:51:20;;;;;;;17.48;16.75;;;2.10;99.90;;;;;;5012430;28;20449;-78
2024/01/13 00:53:46;;;;;;;18.35;17.38;;;2.50;99.90;;;;;;5011575;28;20052;-78
2024/01/13 00:56:12;;;;;;;18.98;18.08;;;2.10;99.90;;;;;;5027831;28;20051;-78
2024/01/13 00:58:38;;;;;;;18.90;18.05;;;2.10;99.90;;;;;;5012145;28;20037;-78
2024/01/13 01:01:03;;;;;;;18.10;17.20;;;2.20;99.90;;;;;;5043008;28;20098;-78
2024/01/13 01:03:30;;;;;;;17.45;16.65;;;2.20;99.90;;;;;;5012276;28;20487;-78
2024/01/13 01:05:56;;;;;;;17.60;16.80;;;2.10;99.90;;;;;;5026447;28;20044;-78
2024/01/13 01:08:21;;;;;;;17.85;17.05;;;2.10;99.90;;;;;;5044686;28;20044;-78
2024/01/13 01:10:48;;;;;;;17.77;16.98;;;2.10;99.90;;;;;;5010866;28;20037;-78
2024/01/13 01:13:13;;;;;;;18.70;17.90;;;2.10;99.90;;;;;;5027692;28;20049;-78
2024/01/13 01:15:39;;;;;;;17.88;17.08;;;2.10;99.90;;;;;;5042526;28;20041;-78
2024/01/13 01:18:05;;;;;;;17.02;16.27;;;2.10;99.90;;;;;;5010613;28;20514;-78
2024/01/13 01:20:31;;;;;;;18.52;17.63;;;2.00;99.90;;;;;;5011799;28;20048;-78
2024/01/13 01:22:59;;;;;;;18.17;17.40;;;2.00;99.90;;;;;;5006294;28;20045;-78
2024/01/13 01:25:25;;;;;;;18.05;17.23;;;2.10;99.90;;;;;;5002826;28;20041;-78
2024/01/13 01:27:51;;;;;;;18.23;17.23;;;2.10;99.90;;;;;;5026970;28;20045;-78
2024/01/13 01:30:16;;;;;;;16.27;15.43;;;2.00;99.90;;;;;;5010727;28;20033;-78
2024/01/13 01:32:42;;;;;;;16.48;15.77;;;2.00;99.90;;;;;;5011140;28;20096;-78
2024/01/13 01:35:08;;;;;;;17.65;16.80;;;2.10;99.90;;;;;;5010340;28;20055;-78
2024/01/13 01:37:34;;;;;;;17.88;17.08;;;2.10;99.90;;;;;;5027774;28;20041;-79
2024/01/13 01:40:00;;;;;;;17.98;17.27;;;2.00;99.90;;;;;;5010245;28;20055;-79
2024/01/13 01:42:26;;;;;;;17.85;17.05;;;2.10;99.90;;;;;;5043805;28;20496;-79
2024/01/13 01:44:51;;;;;;;17.40;16.70;;;2.10;99.90;;;;;;5042475;28;20528;-78
2024/01/13 01:47:19;;;;;;;17.95;17.05;;;2.50;99.90;;;;;;5043781;28;20052;-78
2024/01/13 01:49:46;;;;;;;17.40;16.45;;;2.20;99.90;;;;;;5028109;28;20126;-78
2024/01/13 01:52:12;;;;;;;16.48;15.77;;;2.20;99.90;;;;;;5009967;28;20136;-78
2024/01/13 01:54:39;;;;;;;17.52;16.73;;;2.80;99.90;;;;;;5010700;28;20063;-78
2024/01/13 01:57:06;;;;;;;15.55;14.82;;;2.20;99.90;;;;;;5026036;28;20041;-79
2024/01/13 01:59:31;;;;;;;17.17;16.48;;;2.10;99.90;;;;;;5011064;28;20040;-78
2024/01/13 02:02:00;;;;;;;16.92;16.23;;;2.20;99.90;;;;;;5023147;28;20072;-79
2024/01/13 02:04:26;;;;;;;15.90;15.27;;;2.20;99.90;;;;;;5007116;28;20106;-77
2024/01/13 02:06:52;;;;;;;17.08;16.38;;;2.20;99.90;;;;;;5010484;28;20041;-78
2024/01/13 02:09:19;;;;;;;16.75;16.05;;;2.20;99.90;;;;;;5025953;28;20045;-78
2024/01/13 02:11:45;;;;;;;17.00;16.30;;;2.20;99.90;;;;;;5010425;28;20163;-78
2024/01/13 02:14:11;;;;;;;17.83;17.02;;;2.20;99.90;;;;;;5039110;28;20068;-78
2024/01/13 02:16:37;;;;;;;16.95;16.15;;;2.20;99.90;;;;;;5011123;28;20056;-78
2024/01/13 02:19:02;;;;;;;17.00;16.30;;;2.20;99.90;;;;;;5009384;28;20047;-77
2024/01/13 02:21:29;;;;;;;16.65;15.95;;;2.20;99.90;;;;;;5026576;28;20104;-78
2024/01/13 02:23:54;;;;;;;16.48;15.68;;;2.20;99.90;;;;;;5042954;28;20045;-78
2024/01/13 02:26:20;;;;;;;16.88;16.13;;;2.20;99.90;;;;;;5009710;28;20048;-78
2024/01/13 02:28:46;;;;;;;16.73;15.95;;;2.20;99.90;;;;;;5010439;28;20096;-77
2024/01/13 02:31:14;;;;;;;16.92;16.13;;;2.30;99.90;;;;;;5025307;28;20044;-78
2024/01/13 02:33:39;;;;;;;17.05;16.20;;;2.20;99.90;;;;;;5010982;28;20044;-79
2024/01/13 02:36:06;;;;;;;15.93;15.27;;;2.20;99.90;;;;;;5024877;28;20107;-82
2024/01/13 02:38:31;;;;;;;16.92;16.13;;;2.20;99.90;;;;;;5026776;28;20036;-79
2024/01/13 02:40:57;;;;;;;16.08;15.38;;;2.20;99.90;;;;;;5009898;28;20051;-78
2024/01/13 02:43:23;;;;;;;15.48;14.73;;;2.30;99.90;;;;;;5009229;28;20047;-80
2024/01/13 02:45:49;;;;;;;15.75;14.93;;;2.30;99.90;;;;;;5026976;28;20091;-78
2024/01/13 02:48:17;;;;;;;15.40;14.70;;;2.30;99.90;;;;;;5009037;28;20044;-77
2024/01/13 02:50:53;;;;;;;16.83;16.00;;;2.30;99.90;;;;;;5027222;28;20029;-78
2024/01/13 02:53:18;;;;;;;16.33;15.63;;;2.30;99.90;;;;;;5026067;28;20336;-81
2024/01/13 02:55:44;;;;;;;16.48;15.68;;;2.30;99.90;;;;;;5010092;28;20040;-78
2024/01/13 02:58:10;;;;;;;17.02;16.23;;;2.30;99.90;;;;;;5009887;28;20496;-78
2024/01/13 03:00:36;;;;;;;16.13;15.43;;;2.40;99.90;;;;;;5037518;28;20076;-78
2024/01/13 03:03:02;;;;;;;15.85;15.00;;;2.40;99.90;;;;;;5026791;28;20041;-78
2024/01/13 03:05:27;;;;;;;17.20;16.45;;;2.30;99.90;;;;;;5008887;28;20040;-78
2024/01/13 03:07:53;;;;;;;16.15;15.45;;;2.30;99.90;;;;;;5011013;28;20053;-77
2024/01/13 03:10:19;;;;;;;16.23;15.52;;;2.30;99.90;;;;;;5008576;28;20057;-78
2024/01/13 03:12:45;;;;;;;16.95;16.15;;;2.30;99.90;;;;;;5009736;28;20071;-78
2024/01/13 03:15:10;;;;;;;16.95;16.15;;;2.30;99.90;;;;;;5025601;28;20044;-78
2024/01/13 03:17:36;;;;;;;16.33;15.52;;;2.30;99.90;;;;;;5009448;28;20045;-78
2024/01/13 03:20:03;;;;;;;17.00;16.10;;;2.40;99.90;;;;;;5010043;28;20045;-78
2024/01/13 03:22:28;;;;;;;16.52;15.73;;;2.30;99.90;;;;;;5008592;28;20496;-79
2024/01/13 03:24:56;;;;;;;17.10;16.33;;;2.30;99.90;;;;;;5009945;28;20053;-78
2024/01/13 03:27:22;;;;;;;17.95;16.95;;;2.30;99.90;;;;;;5009369;28;20067;-78
2024/01/13 03:29:48;;;;;;;17.95;17.00;;;2.30;99.90;;;;;;5025732;28;20482;-77
2024/01/13 03:32:13;;;;;;;17.75;16.77;;;2.30;99.90;;;;;;5009166;28;20033;-78
2024/01/13 03:34:39;;;;;;;18.30;17.30;;;3.00;99.90;;;;;;5025603;28;20056;-78
2024/01/13 03:37:06;;;;;;;19.08;17.95;;;2.40;99.90;;;;;;5026519;28;20052;-78
2024/01/13 03:39:31;;;;;;;17.30;16.35;;;2.40;99.90;;;;;;5041404;28;20045;-78
2024/01/13 03:41:57;;;;;;;17.38;16.55;;;2.40;99.90;;;;;;5026009;28;20037;-78
2024/01/13 03:44:23;;;;;;;18.35;17.35;;;2.50;99.90;;;;;;5008040;28;20067;-78
2024/01/13 03:46:49;;;;;;;18.88;17.98;;;2.30;99.90;;;;;;5011719;28;20126;-78
2024/01/13 03:49:15;;;;;;;17.65;16.77;;;2.30;99.90;;;;;;5028875;28;20086;-78
2024/01/13 03:51:41;;;;;;;17.73;16.77;;;2.30;99.90;;;;;;5013094;28;20072;-78
2024/01/13 03:54:06;;;;;;;18.00;17.05;;;2.30;99.90;;;;;;5013024;28;20047;-79
2024/01/13 03:56:32;;;;;;;17.88;17.05;;;2.30;99.90;;;;;;5011804;28;20032;-78
2024/01/13 03:58:58;;;;;;;16.73;15.85;;;2.50;99.90;;;;;;5045932;28;20067;-78
2024/01/13 04:01:24;;;;;;;17.75;16.85;;;2.30;99.90;;;;;;5027628;28;20033;-78
2024/01/13 04:03:49;;;;;;;17.60;16.75;;;2.30;99.90;;;;;;5030025;28;20090;-78
2024/01/13 04:06:15;;;;;;;17.30;16.60;;;2.50;99.90;;;;;;5011920;28;20045;-79
2024/01/13 04:08:41;;;;;;;16.65;15.85;;;2.30;99.90;;;;;;5012180;28;20091;-78
2024/01/13 04:11:08;;;;;;;16.67;15.88;;;2.30;99.90;;;;;;5012596;28;20056;-78
2024/01/13 04:13:35;;;;;;;16.55;15.55;;;2.30;99.90;;;;;;5027518;28;20041;-78
2024/01/13 04:16:00;;;;;;;18.15;17.25;;;2.30;99.90;;;;;;5028877;28;20037;-78
2024/01/13 04:18:26;;;;;;;16.58;15.85;;;2.30;99.90;;;;;;5011729;28;20056;-79
2024/01/13 04:20:52;;;;;;;18.08;17.30;;;2.40;99.90;;;;;;5013251;28;20049;-79
2024/01/13 04:23:18;;;;;;;18.13;17.23;;;2.40;99.90;;;;;;5011449;28;20107;-78
2024/01/13 04:25:43;;;;;;;17.20;16.25;;;2.40;99.90;;;;;;5012748;28;20062;-78
2024/01/13 04:28:09;;;;;;;16.38;15.48;;;2.40;99.90;;;;;;5028725;28;20041;-80
2024/01/13 04:30:35;;;;;;;17.35;16.42;;;2.30;99.90;;;;;;5011446;28;20068;-81
2024/01/13 04:33:01;;;;;;;16.42;15.65;;;2.50;99.90;;;;;;5012946;28;20037;-78
2024/01/13 04:35:28;;;;;;;18.02;17.15;;;2.40;99.90;;;;;;5011343;28;20041;-79
2024/01/13 04:37:55;;;;;;;17.60;16.80;;;2.40;99.90;;;;;;5027585;28;20044;-79
2024/01/13 04:40:20;;;;;;;17.95;16.92;;;2.40;99.90;;;;;;5009580;28;20485;-78
2024/01/13 04:42:46;;;;;;;17.48;16.73;;;2.70;99.90;;;;;;5043232;28;20047;-79
2024/01/13 04:45:12;;;;;;;17.88;17.08;;;2.40;99.90;;;;;;5026832;28;20080;-78
2024/01/13 04:47:38;;;;;;;17.17;16.20;;;2.40;99.90;;;;;;5043306;28;20041;-78
2024/01/13 04:50:04;;;;;;;17.67;16.67;;;2.40;99.90;;;;;;5028191;28;20502;-78
2024/01/13 04:52:30;;;;;;;17.25;16.45;;;2.40;99.90;;;;;;5027389;28;20072;-79
2024/01/13 04:54:55;;;;;;;17.88;16.73;;;2.40;99.90;;;;;;5028087;28;20091;-81
2024/01/13 04:57:21;;;;;;;18.30;17.50;;;2.40;99.90;;;;;;5010520;28;20087;-83
2024/01/13 04:59:47;;;;;;;17.40;16.70;;;2.40;99.90;;;;;;5027312;28;20045;-82
2024/01/13 05:02:13;;;;;;;17.92;17.02;;;2.40;99.90;;;;;;5026882;28;20041;-81
2024/01/13 05:04:39;;;;;;;17.35;16.48;;;2.40;99.90;;;;;;5011541;28;20104;-79
2024/01/13 05:07:05;;;;;;;16.00;15.20;;;2.40;99.90;;;;;;5011421;28;20431;-79
2024/01/13 05:09:31;;;;;;;16.67;15.88;;;2.40;99.90;;;;;;5009836;28;20036;-79
2024/01/13 05:11:56;;;;;;;18.52;17.70;;;2.40;99.90;;;;;;5028321;28;20055;-79
2024/01/13 05:14:22;;;;;;;20.02;19.02;;;2.30;99.90;;;;;;5025884;28;20025;-79
2024/01/13 05:16:48;;;;;;;19.40;18.50;;;2.30;99.90;;;;;;5028514;28;20087;-81
2024/01/13 05:19:14;;;;;;;19.08;18.27;;;2.30;99.90;;;;;;5010288;28;20067;-78
2024/01/13 05:21:39;;;;;;;20.10;19.10;;;2.30;99.90;;;;;;5027500;28;20107;-81
2024/01/13 05:24:05;;;;;;;19.95;18.90;;;2.50;99.90;;;;;;4995614;28;20080;-78
2024/01/13 05:26:31;;;;;;;18.83;17.83;;;2.30;99.90;;;;;;5010081;28;20473;-79
2024/01/13 05:28:58;;;;;;;18.42;17.63;;;2.30;99.90;;;;;;5044769;28;20055;-78
2024/01/13 05:31:23;;;;;;;21.05;19.63;;;2.40;99.90;;;;;;5009587;28;20037;-78
2024/01/13 05:33:49;;;;;;;18.33;17.33;;;2.30;99.90;;;;;;5027818;28;20099;-80
2024/01/13 05:36:16;;;;;;;19.70;18.80;;;2.30;99.90;;;;;;5026965;28;20053;-79
2024/01/13 05:38:42;;;;;;;20.13;19.23;;;2.30;99.90;;;;;;5043767;28;20037;-79
2024/01/13 05:41:09;;;;;;;20.85;20.00;;;2.30;99.90;;;;;;5027374;28;20088;-79
2024/01/13 05:43:35;;;;;;;19.92;19.15;;;2.40;99.90;;;;;;5026332;28;20041;-80
2024/01/13 05:46:01;;;;;;;21.50;20.60;;;2.30;99.90;;;;;;5027477;28;20535;-82
2024/01/13 05:48:26;;;;;;;20.77;19.83;;;2.30;99.90;;;;;;5009350;28;20040;-84
2024/01/13 05:50:52;;;;;;;20.55;19.48;;;2.40;99.90;;;;;;5028146;28;20135;-82
2024/01/13 05:53:18;;;;;;;19.35;18.58;;;2.80;99.90;;;;;;5010315;28;20052;-82
2024/01/13 05:55:44;;;;;;;19.33;18.58;;;2.30;99.90;;;;;;5027114;28;20037;-82
2024/01/13 05:58:10;;;;;;;21.65;20.85;;;2.30;99.90;;;;;;5027180;28;20045;-80
2024/01/13 06:00:36;;;;;;;19.65;18.75;;;2.30;99.90;;;;;;5025824;28;20049;-79
2024/01/13 06:03:02;;;;;;;20.73;19.75;;;2.50;99.90;;;;;;5044053;28;20140;-78
2024/01/13 06:05:28;;;;;;;19.45;18.65;;;2.30;99.90;;;;;;5025758;28;20041;-82
2024/01/13 06:07:54;;;;;;;19.35;18.50;;;2.30;99.90;;;;;;5010386;28;20101;-78
2024/01/13 06:10:20;;;;;;;19.60;18.80;;;2.30;99.90;;;;;;5042703;28;20053;-79
2024/01/13 06:12:46;;;;;;;21.02;20.17;;;2.30;99.90;;;;;;5010077;28;20449;-79
2024/01/13 06:15:12;;;;;;;19.10;18.25;;;2.30;99.90;;;;;;5010113;28;20041;-79
2024/01/13 06:17:38;;;;;;;19.63;18.83;;;2.30;99.90;;;;;;5009544;28;20076;-78
2024/01/13 06:20:04;;;;;;;21.75;20.83;;;2.60;99.90;;;;;;5027250;28;20071;-79
2024/01/13 06:22:30;;;;;;;22.08;21.17;;;2.30;99.90;;;;;;5042611;28;20067;-80
2024/01/13 06:24:56;;;;;;;20.17;19.27;;;2.20;99.90;;;;;;5010836;28;20439;-82
2024/01/13 06:27:21;;;;;;;19.75;18.95;;;2.20;99.90;;;;;;5026113;28;20053;-80
2024/01/13 06:29:47;;;;;;;20.92;20.08;;;2.30;99.90;;;;;;5026773;28;20032;-79
2024/01/13 06:32:13;;;;;;;20.98;20.17;;;2.30;99.90;;;;;;5026524;28;20107;-78
2024/01/13 06:34:38;;;;;;;21.77;20.95;;;2.90;99.90;;;;;;5042725;28;20041;-81
2024/01/13 06:37:04;;;;;;;20.77;19.88;;;2.20;99.90;;;;;;5010763;28;20108;-81
2024/01/13 06:39:30;;;;;;;20.10;19.30;;;2.30;99.90;;;;;;5025584;28;20512;-81
2024/01/13 06:41:56;;;;;;;20.95;20.05;;;2.40;99.90;;;;;;5010799;28;20133;-80
2024/01/13 06:44:21;;;;;;;21.00;20.20;;;2.60;99.90;;;;;;5008519;28;20041;-80
2024/01/13 06:46:47;;;;;;;20.58;19.77;;;2.20;99.90;;;;;;5027138;28;20052;-79
2024/01/13 06:49:13;;;;;;;21.15;20.35;;;2.40;99.90;;;;;;5026205;28;20538;-78
2024/01/13 06:51:38;;;;;;;21.02;20.17;;;2.90;99.90;;;;;;5042915;28;20041;-78
2024/01/13 06:54:05;;;;;;;22.50;21.52;;;2.60;99.90;;;;;;5010552;28;20048;-77
2024/01/13 06:56:31;;;;;;;21.50;20.60;;;2.20;99.90;;;;;;5042108;28;20081;-81
2024/01/13 06:58:56;;;;;;;22.23;21.27;;;2.20;99.90;;;;;;5043732;28;20439;-79
2024/01/13 07:01:22;;;;;;;20.80;19.90;;;2.40;99.90;;;;;;5025115;28;20083;-78
2024/01/13 07:03:48;;;;;;;21.65;20.80;;;2.30;99.90;;;;;;5043447;28;20041;-78
2024/01/13 07:06:13;;;;;;;21.33;20.45;;;2.20;99.90;;;;;;5025703;28;20045;-78
2024/01/13 07:08:43;;;;;;;22.98;22.02;;;2.20;99.90;;;;;;5042676;28;20064;-78
2024/01/13 07:11:15;;;;;;;23.58;22.67;;;2.60;99.90;;;;;;5026442;28;20052;-81
2024/01/13 07:13:42;;;;;;;24.20;23.15;;;2.30;99.90;;;;;;5019654;28;20398;-79
2024/01/13 07:16:08;;;;;;;22.75;21.85;;;2.20;99.90;;;;;;5026658;28;20044;-82
2024/01/13 07:18:34;;;;;;;23.00;22.10;;;3.40;99.90;;;;;;5008557;28;20044;-82
2024/01/13 07:21:00;;;;;;;24.38;23.27;;;2.20;99.90;;;;;;5027269;28;20095;-80
2024/01/13 07:23:26;;;;;;;23.70;22.85;;;2.20;99.90;;;;;;5013139;28;20060;-79
2024/01/13 07:25:51;;;;;;;23.70;22.80;;;2.30;99.90;;;;;;5046354;28;20051;-78
2024/01/13 07:28:17;;;;;;;24.00;23.10;;;2.30;99.90;;;;;;5029823;28;20104;-81
2024/01/13 07:30:42;;;;;;;22.55;21.65;;;2.30;99.90;;;;;;5012126;28;20037;-78
2024/01/13 07:33:08;;;;;;;24.17;23.08;;;2.30;99.90;;;;;;5030540;28;20041;-81
2024/01/13 07:35:35;;;;;;;22.55;21.65;;;2.50;99.90;;;;;;5012088;28;20101;-78
2024/01/13 07:38:01;;;;;;;22.80;21.90;;;2.30;99.90;;;;;;5030349;28;20485;-81
2024/01/13 07:40:27;;;;;;;23.55;22.55;;;2.40;99.90;;;;;;5028826;28;20029;-79
2024/01/13 07:42:53;;;;;;;21.95;21.02;;;2.50;99.90;;;;;;5012885;28;20375;-78
2024/01/13 07:45:18;;;;;;;21.67;20.83;;;2.40;99.90;;;;;;5046153;28;20120;-78
2024/01/13 07:47:45;;;;;;;23.25;22.27;;;2.80;99.90;;;;;;5011612;28;20057;-81
2024/01/13 07:50:11;;;;;;;23.73;22.63;;;2.70;99.90;;;;;;5030373;28;20037;-78
2024/01/13 07:52:37;;;;;;;23.13;22.13;;;3.20;99.90;;;;;;5044582;28;20103;-79
2024/01/13 07:55:03;;;;;;;22.95;22.05;;;2.80;99.90;;;;;;5013901;28;20044;-83
2024/01/13 07:57:29;;;;;;;23.52;22.40;;;2.50;99.90;;;;;;5008782;28;20104;-82
2024/01/13 07:59:56;;;;;;;23.00;21.70;;;2.50;99.90;;;;;;5029266;28;20045;-79
2024/01/13 08:02:21;;;;;;;22.38;21.38;;;2.50;99.90;;;;;;5029157;28;20037;-78
2024/01/13 08:04:47;;;;;;;24.02;22.95;;;2.60;99.90;;;;;;5028890;28;20041;-80
2024/01/13 08:07:13;;;;;;;22.80;21.65;;;2.50;99.90;;;;;;5013700;28;20055;-78
2024/01/13 08:09:39;;;;;;;22.92;21.98;;;2.50;99.90;;;;;;5011682;28;20101;-83
2024/01/13 08:12:05;;;;;;;22.63;21.75;;;2.50;99.90;;;;;;5029825;28;20045;-78
2024/01/13 08:14:31;;;;;;;22.35;21.55;;;2.50;99.90;;;;;;5041658;28;20095;-81
2024/01/13 08:16:56;;;;;;;23.52;22.63;;;2.60;99.90;;;;;;5045833;28;20045;-80
2024/01/13 08:19:22;;;;;;;22.83;21.92;;;2.60;99.90;;;;;;5028889;28;20044;-81
2024/01/13 08:21:50;;;;;;;21.27;20.48;;;2.60;99.90;;;;;;5012366;28;20045;-78
2024/01/13 08:24:16;;;;;;;20.23;19.42;;;2.60;99.90;;;;;;5045536;28;20433;-81
2024/01/13 08:26:42;;;;;;;20.30;19.50;;;2.60;99.90;;;;;;5044519;28;20037;-81
2024/01/13 08:29:08;;;;;;;19.77;18.98;;;2.60;99.90;;;;;;5029125;28;20045;-81
2024/01/13 08:31:34;;;;;;;19.50;18.67;;;2.60;99.90;;;;;;5027951;28;20479;-82
2024/01/13 08:34:00;;;;;;;20.08;19.23;;;2.70;99.90;;;;;;5027715;28;20091;-80
2024/01/13 08:36:26;;;;;;;19.95;19.15;;;2.60;99.90;;;;;;5028655;28;20037;-79
2024/01/13 08:38:51;;;;;;;19.85;19.05;;;2.70;99.90;;;;;;5012156;28;20132;-79
2024/01/13 08:41:17;;;;;;;19.00;18.20;;;2.60;99.90;;;;;;5028762;28;20041;-80
2024/01/13 08:43:43;;;;;;;20.83;20.02;;;2.70;99.90;;;;;;5010868;28;20412;-82
2024/01/13 08:46:13;;;;;;;20.90;20.00;;;2.70;99.90;;;;;;5012508;28;20044;-82
2024/01/13 08:48:39;;;;;;;21.83;21.00;;;2.70;99.90;;;;;;5026967;28;20039;-81
2024/01/13 08:51:05;;;;;;;22.58;21.58;;;2.70;99.90;;;;;;5012889;28;20563;-78
2024/01/13 08:53:32;;;;;;;22.98;22.10;;;2.70;99.90;;;;;;5011815;28;20052;-82
2024/01/13 08:55:58;;;;;;;21.83;20.73;;;2.70;99.90;;;;;;5044462;28;20049;-82
2024/01/13 08:58:24;;;;;;;21.73;20.73;;;2.70;99.90;;;;;;5044908;28;20455;-80
2024/01/13 09:00:54;;;;;;;20.63;19.77;;;2.70;99.90;;;;;;5027051;28;20079;-81
2024/01/13 09:03:21;;;;;;;21.92;20.92;;;2.70;99.90;;;;;;5028591;28;20037;-80
2024/01/13 09:05:47;;;;;;;24.00;22.80;;;3.40;99.90;;;;;;5043575;28;20049;-78
2024/01/13 09:08:13;;;;;;;24.92;23.77;;;2.70;99.90;;;;;;5022910;28;20047;-80
2024/01/13 09:10:39;;;;;;;24.80;23.63;;;2.70;99.90;;;;;;5018222;28;20060;-81
2024/01/13 09:13:05;;;;;;;24.75;23.52;;;2.70;99.90;;;;;;5009499;28;20045;-80
2024/01/13 09:15:31;;;;;;;22.45;21.05;;;3.10;99.90;;;;;;5019970;28;20034;-78
2024/01/13 09:17:57;;;;;;;25.30;24.00;;;2.90;99.90;;;;;;5010995;28;20096;-80
2024/01/13 09:20:24;;;;;;;26.23;24.23;;;2.80;99.90;;;;;;4985389;28;20041;-80
2024/01/13 09:22:49;;;;;;;26.92;25.27;;;2.80;99.90;;;;;;5024510;28;20120;-79
2024/01/13 09:25:15;;;;;;;25.42;23.92;;;2.80;99.90;;;;;;5013281;28;20582;-81
2024/01/13 09:27:41;;;;;;;26.08;24.48;;;2.80;99.90;;;;;;4997768;28;20048;-80
2024/01/13 09:30:07;;;;;;;29.63;27.65;;;2.80;99.90;;;;;;4998754;28;20037;-81
2024/01/13 09:32:33;;;;;;;29.92;27.67;;;2.80;99.90;;;;;;5023987;28;20080;-79
2024/01/13 09:34:58;;;;;;;29.27;27.20;;;2.90;99.90;;;;;;5001504;28;20041;-80
2024/01/13 09:37:24;;;;;;;30.98;28.90;;;2.90;99.90;;;;;;4999648;28;20270;-79
2024/01/13 09:39:51;;;;;;;26.73;24.80;;;2.80;99.90;;;;;;5002815;28;20405;-79
2024/01/13 09:42:30;;;;;;;30.85;28.45;;;2.90;99.90;;;;;;5023915;28;20064;-80
2024/01/13 09:44:56;;;;;;;29.67;27.58;;;2.90;99.90;;;;;;5021434;28;20042;-80
2024/01/13 09:47:22;;;;;;;28.23;26.10;;;2.90;99.90;;;;;;5005737;28;20042;-78
2024/01/13 09:49:50;;;;;;;28.60;26.38;;;2.90;99.90;;;;;;5003828;28;20107;-80
2024/01/13 09:52:17;;;;;;;32.60;29.88;;;2.90;99.90;;;;;;5019951;28;20096;-80
2024/01/13 09:54:48;;;;;;;32.13;29.38;;;2.90;99.90;;;;;;5020452;28;20096;-80
2024/01/13 09:57:14;;;;;;;33.85;30.90;;;2.90;99.90;;;;;;5020408;28;20053;-80
2024/01/13 09:59:41;;;;;;;35.88;32.67;;;2.90;99.90;;;;;;5001539;28;20050;-80
2024/01/13 10:02:12;;;;;;;33.72;31.08;;;2.90;99.90;;;;;;5006074;28;20049;-80
2024/01/13 10:04:37;;;;;;;31.92;29.33;;;2.90;99.90;;;;;;5003002;28;20053;-81
2024/01/13 10:07:05;;;;;;;32.63;29.60;;;2.90;99.90;;;;;;4980898;28;20041;-81
2024/01/13 10:09:31;;;;;;;33.40;29.83;;;3.60;99.90;;;;;;5015970;28;20045;-80
2024/01/13 10:11:57;;;;;;;27.08;24.67;;;3.00;99.90;;;;;;5010976;28;20056;-79
2024/01/13 10:14:24;;;;;;;36.65;33.08;;;2.90;99.90;;;;;;5002737;28;20043;-77
2024/01/13 10:16:49;;;;;;;36.10;32.67;;;2.90;99.90;;;;;;4991225;28;20561;-79
2024/01/13 10:19:15;;;;;;;33.95;30.80;;;2.90;99.90;;;;;;4990173;28;20056;-78
2024/01/13 10:21:41;;;;;;;31.63;28.90;;;3.00;99.90;;;;;;4989779;28;20060;-79
2024/01/13 10:24:07;;;;;;;36.05;32.58;;;2.90;99.90;;;;;;4984969;28;20045;-80
2024/01/13 10:26:33;;;;;;;40.15;33.90;;;3.00;99.90;;;;;;5006106;28;20128;-82
2024/01/13 10:28:59;;;;;;;37.20;34.08;;;3.00;99.90;;;;;;4990912;28;20097;-79
2024/01/13 10:31:25;;;;;;;37.58;33.92;;;3.00;99.90;;;;;;5005343;28;20053;-81
2024/01/13 10:33:53;;;;;;;35.30;31.80;;;3.00;99.90;;;;;;5000762;28;20155;-79
2024/01/13 10:36:24;;;;;;;35.50;31.85;;;3.00;99.90;;;;;;5022195;28;20048;-79
2024/01/13 10:38:51;;;;;;;39.45;34.20;;;3.10;99.90;;;;;;5023244;28;20037;-80
2024/01/13 10:41:21;;;;;;;33.65;30.60;;;3.10;99.90;;;;;;5042246;28;20123;-81
2024/01/13 10:43:52;;;;;;;35.85;32.53;;;3.10;99.90;;;;;;5025050;28;20045;-81
2024/01/13 10:46:22;;;;;;;36.70;33.28;;;3.10;99.90;;;;;;5026948;28;20075;-81
2024/01/13 10:48:51;;;;;;;43.35;32.55;;;3.10;99.90;;;;;;5024269;28;20202;-80
2024/01/13 10:51:23;;;;;;;33.75;29.80;;;3.10;99.90;;;;;;5026008;28;20029;-79
2024/01/13 10:53:51;;;;;;;34.95;31.77;;;3.10;99.90;;;;;;5026586;28;20403;-81
2024/01/13 10:56:17;;;;;;;37.35;33.55;;;3.10;99.90;;;;;;5026107;28;20053;-80
2024/01/13 10:58:49;;;;;;;36.92;33.05;;;3.10;99.90;;;;;;5013836;28;20051;-79
2024/01/13 11:01:14;;;;;;;32.00;29.23;;;3.10;99.90;;;;;;5028010;28;20040;-81
2024/01/13 11:03:41;;;;;;;35.53;31.88;;;3.10;99.90;;;;;;5030478;28;20041;-79
2024/01/13 11:06:07;;;;;;;33.08;29.88;;;3.10;99.90;;;;;;5013540;28;20124;-78
2024/01/13 11:08:34;;;;;;;32.30;29.65;;;3.10;99.90;;;;;;5013912;28;20049;-80
2024/01/13 11:11:01;;;;;;;33.33;30.13;;;3.00;99.90;;;;;;5008620;28;20053;-79
2024/01/13 11:13:39;;;;;;;35.65;31.92;;;3.10;99.90;;;;;;5032594;28;20603;-81
2024/01/13 11:16:15;;;;;;;35.22;31.88;;;3.10;99.90;;;;;;5007660;28;20095;-77
2024/01/13 11:18:46;;;;;;;38.88;35.00;;;3.10;99.90;;;;;;5022217;28;20103;-78
2024/01/13 11:21:12;;;;;;;37.92;33.92;;;3.10;99.90;;;;;;5006817;28;20521;-80
2024/01/13 11:23:43;;;;;;;38.22;34.78;;;3.10;99.90;;;;;;5010537;28;20038;-78
2024/01/13 11:26:10;;;;;;;34.30;31.40;;;3.00;99.90;;;;;;5024942;28;20049;-76
2024/01/13 11:28:49;;;;;;;36.90;33.85;;;3.00;99.90;;;;;;5042548;28;20100;-79
2024/01/13 11:31:40;;;;;;;40.72;36.90;;;3.00;99.90;;;;;;5018515;28;20044;-79
2024/01/13 11:34:17;;;;;;;39.08;35.95;;;3.00;99.90;;;;;;5022621;28;20073;-80
2024/01/13 11:36:48;;;;;;;40.30;36.58;;;3.00;99.90;;;;;;5001653;28;20498;-80
2024/01/13 11:39:15;;;;;;;43.50;39.33;;;3.00;99.90;;;;;;5025051;28;20052;-80
2024/01/13 11:41:51;;;;;;;40.80;37.42;;;2.90;99.90;;;;;;5026561;28;20034;-79
2024/01/13 11:44:19;;;;;;;42.83;39.15;;;3.00;99.90;;;;;;5041144;28;20060;-80
2024/01/13 11:47:06;;;;;;;43.15;39.33;;;3.00;99.90;;;;;;5025909;28;20061;-79
2024/01/13 11:49:45;;;;;;;38.10;34.78;;;3.00;99.90;;;;;;5041083;28;20109;-78
2024/01/13 11:52:13;;;;;;;44.10;40.40;;;3.00;99.90;;;;;;5025173;28;20158;-80
2024/01/13 11:54:40;;;;;;;47.30;42.90;;;3.10;99.90;;;;;;5042422;28;20050;-79
2024/01/13 11:57:17;;;;;;;43.22;39.63;;;3.00;99.90;;;;;;5024832;28;20479;-80
2024/01/13 11:59:43;;;;;;;43.28;39.65;;;3.00;99.90;;;;;;5041000;28;20104;-81
2024/01/13 12:02:09;;;;;;;44.15;40.28;;;3.10;99.90;;;;;;5041081;28;20075;-79
2024/01/13 12:04:36;;;;;;;40.92;37.15;;;3.10;99.90;;;;;;5024867;28;20049;-77
2024/01/13 12:07:05;;;;;;;41.25;37.92;;;3.10;99.90;;;;;;5042287;28;20048;-79
2024/01/13 12:09:31;;;;;;;44.90;41.05;;;3.10;99.90;;;;;;5041593;28;20100;-80
2024/01/13 12:12:02;;;;;;;42.92;39.20;;;3.60;99.90;;;;;;5027926;28;20062;-77
2024/01/13 12:14:29;;;;;;;41.53;38.58;;;3.10;99.90;;;;;;5026324;28;20049;-77
2024/01/13 12:16:57;;;;;;;42.83;39.13;;;3.10;99.90;;;;;;5025094;28;20037;-79
2024/01/13 12:19:25;;;;;;;41.10;37.58;;;3.10;99.90;;;;;;4992522;28;20041;-79
2024/01/13 12:21:52;;;;;;;41.88;38.40;;;3.10;99.90;;;;;;5024604;28;20057;-78
2024/01/13 12:24:27;;;;;;;39.97;36.30;;;3.50;99.90;;;;;;5013322;28;20037;-78
2024/01/13 12:26:54;;;;;;;38.70;35.80;;;3.20;99.90;;;;;;5043402;28;20143;-79
2024/01/13 12:29:21;;;;;;;43.92;40.47;;;3.20;99.90;;;;;;5020014;28;20049;-81
2024/01/13 12:31:48;;;;;;;43.03;39.22;;;3.20;99.90;;;;;;4991775;28;20075;-80